Terminal Aerodrome Forecast
Issued by NWS

Home | Current Version | Previous Version | Text Only | Print | Product List | Glossary On
Versions: 1 2 3 4 5 6 7 8 9 10 11 12
000
FTUS44 KSJT 281100
TAFJCT
TAF
KJCT 281139Z 2812/2912 16006KT P6SM SKC
     FM281900 14007KT P6SM SCT060
     FM290200 15005KT P6SM SCT250
     FM291000 15004KT P6SM BKN025=

USA.gov is the U.S. government's official web portal to all federal, state and local government web resources and services.